Time;durP1;ratioP1;P1;durP2;ratioP2;P2;SDS_P1;SDS_P2;PMS_P1;PMS_P2;Temp;Humidity;BMP_temperature;BMP_pressure;BME280_temperature;BME280_humidity;BME280_pressure;Samples;Min_cycle;Max_cycle;Signal;HPM_P1;HPM_P2
2022/11/09 00:00:55;;;;;;;3.83;1.37;;;;;;;12.64;91.06;100328.69;5113606;28;20036;-85
2022/11/09 00:03:20;;;;;;;5.45;1.50;;;;;;;12.68;90.92;100331.78;5112425;28;20040;-86
2022/11/09 00:05:56;;;;;;;7.40;1.27;;;;;;;12.64;91.15;100338.75;5112383;28;20047;-86
2022/11/09 00:08:21;;;;;;;5.72;1.52;;;;;;;12.55;91.47;100338.31;5114119;28;20036;-86
2022/11/09 00:10:47;;;;;;;6.03;1.60;;;;;;;12.51;92.04;100341.75;5112147;28;20034;-86
2022/11/09 00:13:12;;;;;;;7.03;1.40;;;;;;;12.49;92.08;100328.41;5112349;28;20122;-85
2022/11/09 00:15:40;;;;;;;7.50;1.60;;;;;;;12.45;92.45;100328.03;5130074;28;20044;-86
2022/11/09 00:18:05;;;;;;;4.95;1.42;;;;;;;12.40;92.84;100329.81;5095341;28;20398;-86
2022/11/09 00:20:31;;;;;;;7.57;1.60;;;;;;;12.46;93.16;100334.31;5112656;28;20130;-86
2022/11/09 00:22:57;;;;;;;6.25;1.33;;;;;;;12.48;93.04;100332.19;5112036;28;20126;-86
2022/11/09 00:25:23;;;;;;;6.23;1.20;;;;;;;12.53;93.07;100321.38;5113226;28;20044;-86
2022/11/09 00:27:51;;;;;;;7.65;1.42;;;;;;;12.58;92.79;100332.38;5111792;28;20027;-86
2022/11/09 00:30:16;;;;;;;5.35;1.70;;;;;;;12.56;93.18;100333.69;5112297;28;20036;-86
2022/11/09 00:32:43;;;;;;;4.93;1.30;;;;;;;12.52;93.31;100327.91;5113326;28;20113;-86
2022/11/09 00:35:11;;;;;;;7.68;1.67;;;;;;;12.55;93.23;100326.56;5111765;28;20052;-85
2022/11/09 00:37:36;;;;;;;6.90;1.55;;;;;;;12.51;93.46;100320.81;5112382;28;20475;-85
2022/11/09 00:40:02;;;;;;;6.23;1.60;;;;;;;12.51;93.32;100328.97;5113112;28;20046;-85
2022/11/09 00:42:27;;;;;;;8.32;1.48;;;;;;;12.54;93.49;100322.22;5115640;28;20031;-86
2022/11/09 00:44:55;;;;;;;5.23;1.50;;;;;;;12.50;93.87;100321.88;5117266;28;20040;-86
2022/11/09 00:47:20;;;;;;;5.60;1.33;;;;;;;12.54;93.69;100314.88;5115543;28;20036;-86
2022/11/09 00:49:46;;;;;;;8.88;1.55;;;;;;;12.65;93.26;100326.78;5133027;27;20070;-86
2022/11/09 00:52:11;;;;;;;4.60;1.40;;;;;;;12.69;93.09;100316.25;5133077;27;20051;-86
2022/11/09 00:54:37;;;;;;;4.87;1.40;;;;;;;12.70;92.52;100315.19;5117306;28;20048;-86
2022/11/09 00:57:02;;;;;;;5.53;1.33;;;;;;;12.70;92.47;100313.28;5115662;28;20028;-86
2022/11/09 00:59:28;;;;;;;9.47;1.37;;;;;;;12.77;91.68;100310.41;5132717;27;20284;-85
2022/11/09 01:01:56;;;;;;;10.70;1.67;;;;;;;12.80;91.71;100308.03;5115866;28;20096;-86
2022/11/09 01:04:21;;;;;;;7.47;1.23;;;;;;;12.79;91.59;100317.28;5115586;28;20043;-85
2022/11/09 01:06:52;;;;;;;6.70;1.07;;;;;;;12.75;91.75;100310.66;5098364;28;20050;-86
2022/11/09 01:09:17;;;;;;;3.30;1.20;;;;;;;12.72;91.98;100326.66;5115840;28;20122;-86
2022/11/09 01:11:43;;;;;;;3.73;1.20;;;;;;;12.73;91.70;100318.25;5116212;28;20143;-86
2022/11/09 01:14:09;;;;;;;12.43;1.50;;;;;;;12.70;91.40;100326.09;5115639;28;20456;-86
2022/11/09 01:16:36;;;;;;;7.78;1.77;;;;;;;12.70;91.44;100337.78;5116534;28;20459;-86
2022/11/09 01:19:02;;;;;;;4.80;1.50;;;;;;;12.72;91.32;100340.28;5131919;27;20059;-86
2022/11/09 01:21:27;;;;;;;4.20;1.33;;;;;;;12.77;90.83;100345.78;5133174;27;20035;-86
2022/11/09 01:23:54;;;;;;;5.07;1.57;;;;;;;12.75;90.89;100348.75;5132039;27;20535;-86
2022/11/09 01:26:20;;;;;;;6.20;1.23;;;;;;;12.72;90.93;100345.72;5114230;28;20476;-86
2022/11/09 01:28:46;;;;;;;6.28;1.48;;;;;;;12.79;90.62;100346.41;5115110;28;20051;-86
2022/11/09 01:31:14;;;;;;;7.13;1.20;;;;;;;12.69;90.92;100343.47;5115005;28;20482;-86
2022/11/09 01:33:43;;;;;;;10.55;1.38;;;;;;;12.67;91.11;100341.00;5113636;28;20060;-86
2022/11/09 01:36:15;;;;;;;3.65;1.42;;;;;;;12.67;90.75;100346.44;5131590;27;20039;-86
2022/11/09 01:38:41;;;;;;;7.88;1.50;;;;;;;12.70;90.31;100345.13;5115166;28;20035;-85
2022/11/09 01:41:11;;;;;;;8.10;1.60;;;;;;;12.69;90.50;100344.28;5132282;27;20039;-86
2022/11/09 01:43:39;;;;;;;3.27;1.30;;;;;;;12.66;90.29;100350.22;5131840;27;20134;-86
2022/11/09 01:46:14;;;;;;;5.65;1.55;;;;;;;12.70;90.31;100350.59;5114944;28;20031;-86
2022/11/09 01:49:02;;;;;;;4.95;1.17;;;;;;;12.65;90.23;100354.00;5132183;27;20036;-86
2022/11/09 01:51:37;;;;;;;5.07;1.48;;;;;;;12.68;89.86;100356.28;5130602;27;20074;-85
2022/11/09 01:54:11;;;;;;;6.07;1.58;;;;;;;12.60;90.34;100343.03;5115606;28;20071;-85
2022/11/09 01:56:38;;;;;;;8.13;1.50;;;;;;;12.53;90.52;100340.44;5115804;28;20035;-86
2022/11/09 01:59:12;;;;;;;7.57;1.17;;;;;;;12.46;90.77;100337.03;5114719;28;20039;-86
2022/11/09 02:01:42;;;;;;;12.30;1.35;;;;;;;12.42;90.82;100336.69;5114139;28;20039;-85
2022/11/09 02:04:18;;;;;;;5.88;1.40;;;;;;;12.43;90.83;100351.09;5114478;28;20078;-86
2022/11/09 02:06:45;;;;;;;5.53;1.45;;;;;;;12.43;90.73;100346.50;5115391;28;20042;-86
2022/11/09 02:09:40;;;;;;;5.07;1.27;;;;;;;12.46;90.57;100342.47;5131157;27;20039;-85
2022/11/09 02:12:09;;;;;;;6.45;1.40;;;;;;;12.44;90.58;100347.31;5114305;28;20043;-86
2022/11/09 02:14:36;;;;;;;4.22;1.10;;;;;;;12.49;90.46;100344.72;5113883;28;20096;-85
2022/11/09 02:17:05;;;;;;;6.38;1.23;;;;;;;12.44;90.64;100339.97;5114160;28;20451;-86
2022/11/09 02:19:30;;;;;;;6.45;1.48;;;;;;;12.41;90.96;100347.81;5114099;28;20051;-86
2022/11/09 02:21:56;;;;;;;9.97;1.20;;;;;;;12.40;90.83;100346.13;5131657;27;20077;-86
2022/11/09 02:24:24;;;;;;;8.00;1.03;;;;;;;12.41;90.34;100343.19;5114807;28;20031;-85
2022/11/09 02:26:51;;;;;;;8.32;1.10;;;;;;;12.42;90.65;100353.00;5131090;27;20032;-85
2022/11/09 02:29:21;;;;;;;7.85;1.42;;;;;;;12.42;90.44;100357.63;5131003;27;20041;-85
2022/11/09 02:31:57;;;;;;;7.38;1.30;;;;;;;12.44;90.60;100367.19;5130796;27;20031;-86
2022/11/09 02:34:24;;;;;;;7.80;1.13;;;;;;;12.49;89.90;100368.38;5130534;27;20079;-86
2022/11/09 02:36:54;;;;;;;6.70;1.23;;;;;;;12.51;89.70;100371.69;5130779;27;20108;-85
2022/11/09 02:39:23;;;;;;;4.15;1.10;;;;;;;12.60;88.70;100364.78;5113754;28;20090;-86
2022/11/09 02:41:57;;;;;;;6.18;1.27;;;;;;;12.60;88.75;100353.91;5113660;28;20046;-86
2022/11/09 02:44:24;;;;;;;9.82;1.30;;;;;;;12.59;88.86;100342.22;5113638;28;20043;-87
2022/11/09 02:46:50;;;;;;;4.68;1.17;;;;;;;12.60;88.18;100352.00;5114576;28;20467;-86
2022/11/09 02:49:18;;;;;;;2.83;0.90;;;;;;;12.67;87.65;100349.16;5113833;28;20046;-86
2022/11/09 02:51:43;;;;;;;6.45;1.30;;;;;;;12.70;87.15;100343.22;5113761;28;20062;-86
2022/11/09 02:54:09;;;;;;;4.63;1.20;;;;;;;12.71;87.00;100325.00;5113720;28;20043;-86
2022/11/09 02:56:34;;;;;;;7.72;0.90;;;;;;;12.73;86.13;100312.00;5113345;28;20506;-86
2022/11/09 02:59:02;;;;;;;4.57;1.63;;;;;;;12.71;86.27;100316.84;5130137;27;20531;-86
2022/11/09 03:01:27;;;;;;;3.58;1.10;;;;;;;12.69;86.18;100327.16;5113258;28;20036;-86
2022/11/09 03:03:55;;;;;;;10.27;1.23;;;;;;;12.74;86.46;100333.53;5112895;28;20161;-86
2022/11/09 03:06:33;;;;;;;7.40;1.23;;;;;;;12.57;88.64;100340.78;5112385;28;20484;-87
2022/11/09 03:09:06;;;;;;;5.72;1.00;;;;;;;12.42;89.17;100344.84;5113531;28;20040;-87
2022/11/09 03:11:32;;;;;;;6.90;1.33;;;;;;;12.29;90.19;100366.88;5112835;28;20039;-86
2022/11/09 03:13:57;;;;;;;12.77;1.70;;;;;;;12.27;90.69;100360.84;5130385;27;20031;-86
2022/11/09 03:16:23;;;;;;;10.40;1.13;;;;;;;12.14;91.38;100366.53;5112537;28;20040;-86
2022/11/09 03:18:50;;;;;;;8.47;1.73;;;;;;;12.05;92.28;100375.03;5114322;28;20098;-86
2022/11/09 03:21:20;;;;;;;5.68;1.40;;;;;;;12.07;91.50;100375.63;5112827;28;20036;-86
2022/11/09 03:23:47;;;;;;;4.03;1.02;;;;;;;12.09;91.86;100383.53;5130103;27;20143;-87
2022/11/09 03:26:13;;;;;;;10.18;1.50;;;;;;;12.10;91.90;100388.75;5112598;28;20035;-86
2022/11/09 03:28:38;;;;;;;10.67;1.53;;;;;;;12.15;91.47;100382.63;5113837;28;20472;-86
2022/11/09 03:31:07;;;;;;;9.48;1.70;;;;;;;12.16;91.86;100380.72;5113001;28;20051;-86
2022/11/09 03:33:32;;;;;;;6.20;1.40;;;;;;;12.18;91.66;100384.00;5093849;28;20044;-86
2022/11/09 03:35:58;;;;;;;6.78;1.10;;;;;;;12.33;90.52;100378.94;5128845;27;20055;-86
2022/11/09 03:38:23;;;;;;;11.70;1.70;;;;;;;12.35;90.51;100384.94;5112775;28;20196;-85
2022/11/09 03:40:49;;;;;;;6.93;1.40;;;;;;;12.37;90.78;100393.72;5112419;28;20046;-86
2022/11/09 03:43:14;;;;;;;7.38;1.33;;;;;;;12.34;90.98;100396.06;5113787;28;20036;-86
2022/11/09 03:45:40;;;;;;;7.33;1.30;;;;;;;12.36;91.07;100400.22;5129924;28;20047;-86
2022/11/09 03:48:05;;;;;;;9.37;1.60;;;;;;;12.30;91.31;100401.16;5112701;28;20070;-86
2022/11/09 03:50:33;;;;;;;7.25;1.30;;;;;;;12.26;91.62;100402.72;5095813;28;20411;-86
2022/11/09 03:53:00;;;;;;;8.63;1.27;;;;;;;12.24;91.70;100416.53;5112198;28;20085;-86
2022/11/09 03:55:26;;;;;;;10.03;1.73;;;;;;;12.26;91.71;100413.59;5129735;28;20589;-86
2022/11/09 03:57:52;;;;;;;13.73;1.35;;;;;;;12.29;91.69;100422.09;5129886;28;20050;-86
2022/11/09 04:00:21;;;;;;;8.57;1.52;;;;;;;12.21;92.35;100427.91;5130442;28;20511;-86
2022/11/09 04:02:46;;;;;;;10.13;1.95;;;;;;;12.22;92.24;100426.00;5113615;28;20501;-86
2022/11/09 04:05:15;;;;;;;7.03;1.20;;;;;;;12.10;92.93;100426.00;5095543;28;20043;-87
2022/11/09 04:07:46;;;;;;;5.72;1.27;;;;;;;11.98;93.74;100430.59;5112770;28;20039;-86
2022/11/09 04:10:12;;;;;;;7.78;1.20;;;;;;;11.88;94.05;100431.97;5113397;28;20425;-86
2022/11/09 04:12:37;;;;;;;7.73;1.50;;;;;;;11.87;94.42;100432.19;5112318;28;20035;-86
2022/11/09 04:15:03;;;;;;;8.63;1.50;;;;;;;11.85;94.72;100431.63;5113488;28;20088;-86
2022/11/09 04:17:28;;;;;;;7.13;1.13;;;;;;;11.77;94.81;100444.47;5116061;28;20066;-86
2022/11/09 04:19:53;;;;;;;10.13;1.63;;;;;;;11.75;95.17;100449.34;5116407;28;20069;-86
2022/11/09 04:22:19;;;;;;;8.87;1.57;;;;;;;11.72;95.21;100452.53;5116092;28;20031;-86
2022/11/09 04:24:44;;;;;;;7.37;1.57;;;;;;;11.68;95.47;100448.59;5117343;28;20066;-86
2022/11/09 04:27:10;;;;;;;4.63;1.23;;;;;;;11.67;95.30;100446.94;5116249;28;20055;-86
2022/11/09 04:29:35;;;;;;;10.80;1.00;;;;;;;11.70;95.61;100460.06;5099157;28;20063;-86
2022/11/09 04:32:01;;;;;;;7.03;1.30;;;;;;;11.70;95.91;100467.41;5116185;28;20043;-86
2022/11/09 04:34:26;;;;;;;10.20;1.77;;;;;;;11.67;96.07;100457.00;5115937;28;20047;-86
2022/11/09 04:36:52;;;;;;;9.90;1.40;;;;;;;11.68;95.80;100464.09;5098953;28;20036;-86
2022/11/09 04:39:17;;;;;;;5.60;1.30;;;;;;;11.73;95.97;100470.47;5099831;28;20039;-86
2022/11/09 04:41:42;;;;;;;7.77;1.93;;;;;;;11.74;95.69;100457.72;5132853;27;20279;-86
2022/11/09 04:44:08;;;;;;;6.13;1.40;;;;;;;11.80;95.29;100466.84;5099461;28;20161;-86
2022/11/09 04:46:33;;;;;;;9.27;1.40;;;;;;;11.79;95.45;100467.88;5098567;28;20407;-86
2022/11/09 04:49:01;;;;;;;8.35;1.30;;;;;;;11.73;95.96;100472.34;5115903;28;20031;-85
2022/11/09 04:51:26;;;;;;;6.50;1.70;;;;;;;11.71;95.98;100478.03;5116071;28;20130;-86
2022/11/09 04:53:52;;;;;;;12.30;1.60;;;;;;;11.72;95.99;100473.41;5116592;28;20063;-87
2022/11/09 04:56:21;;;;;;;7.30;1.40;;;;;;;11.71;96.06;100475.31;5116432;28;20036;-86
2022/11/09 04:58:48;;;;;;;11.63;1.88;;;;;;;11.71;95.94;100467.16;5133414;27;20054;-85
2022/11/09 05:01:13;;;;;;;6.37;1.20;;;;;;;11.67;96.06;100470.56;5132778;27;20031;-86
2022/11/09 05:03:40;;;;;;;8.40;1.48;;;;;;;11.62;96.38;100460.41;5115842;28;20035;-85
2022/11/09 05:08:52;;;;;;;7.32;1.38;;;;;;;11.53;97.24;100468.06;5130595;27;20063;-86
2022/11/09 05:11:18;;;;;;;5.03;1.33;;;;;;;11.57;96.94;100465.69;5115221;28;20553;-86
2022/11/09 05:13:44;;;;;;;10.60;1.48;;;;;;;11.54;97.14;100466.16;5132499;27;20031;-86
2022/11/09 05:16:10;;;;;;;9.20;1.50;;;;;;;11.52;97.13;100460.13;5115312;28;20368;-86
2022/11/09 05:18:35;;;;;;;8.65;1.58;;;;;;;11.50;96.98;100460.38;5115203;28;20438;-86
2022/11/09 05:21:01;;;;;;;10.53;1.53;;;;;;;11.45;97.31;100459.41;5115522;28;20043;-86
2022/11/09 05:26:11;;;;;;;6.93;1.20;;;;;;;11.37;97.64;100453.22;5116422;28;20380;-86
2022/11/09 05:28:36;;;;;;;9.20;1.30;;;;;;;11.37;97.96;100463.28;5132043;27;20032;-86
2022/11/09 05:31:02;;;;;;;20.27;1.93;;;;;;;11.37;97.91;100457.84;5114743;28;20043;-86
2022/11/09 05:33:27;;;;;;;7.78;1.40;;;;;;;11.35;98.03;100458.06;5116331;28;20031;-86
2022/11/09 05:35:54;;;;;;;10.23;1.47;;;;;;;11.30;98.38;100463.34;5131531;27;20083;-86
2022/11/09 05:38:36;;;;;;;7.53;1.40;;;;;;;11.21;98.98;100462.84;5114491;28;20036;-86
2022/11/09 05:41:04;;;;;;;13.63;1.50;;;;;;;11.23;98.79;100462.59;5115680;28;20353;-86
2022/11/09 05:43:32;;;;;;;15.23;1.60;;;;;;;11.19;99.04;100470.41;5114492;28;20035;-86
2022/11/09 05:45:58;;;;;;;7.68;1.30;;;;;;;11.24;99.09;100469.69;5115286;28;20070;-86
2022/11/09 05:48:26;;;;;;;7.80;1.43;;;;;;;11.25;98.52;100465.94;5114403;28;20506;-86
2022/11/09 05:50:54;;;;;;;10.02;1.35;;;;;;;11.19;98.73;100459.53;5114727;28;20054;-86
2022/11/09 05:53:22;;;;;;;10.18;1.60;;;;;;;11.13;99.28;100465.03;5115172;28;20172;-86
2022/11/09 05:55:48;;;;;;;9.60;1.45;;;;;;;11.06;99.82;100459.69;5114888;28;20403;-86
2022/11/09 05:58:13;;;;;;;8.93;1.37;;;;;;;10.98;100.00;100458.09;5114471;28;20031;-86
2022/11/09 06:00:39;;;;;;;16.90;2.50;;;;;;;11.00;100.00;100466.06;5115457;28;20036;-86
2022/11/09 06:03:19;;;;;;;7.47;1.20;;;;;;;11.01;100.00;100454.97;5114411;28;20043;-86
2022/11/09 06:05:46;;;;;;;12.55;1.83;;;;;;;11.06;100.00;100476.81;5098234;28;20044;-86
2022/11/09 06:08:16;;;;;;;14.50;1.70;;;;;;;11.07;100.00;100464.06;5115167;28;20469;-86
2022/11/09 06:10:44;;;;;;;10.40;1.60;;;;;;;11.11;100.00;100467.97;5115812;28;20088;-86
2022/11/09 06:13:12;;;;;;;14.07;1.60;;;;;;;11.10;100.00;100466.34;5131333;27;20043;-85
2022/11/09 06:15:37;;;;;;;15.20;2.00;;;;;;;11.03;100.00;100471.03;5131077;27;20495;-85
2022/11/09 06:18:03;;;;;;;7.43;1.37;;;;;;;11.05;100.00;100472.44;5131162;27;20063;-84
2022/11/09 06:20:29;;;;;;;7.68;1.77;;;;;;;11.01;100.00;100473.13;5131458;27;20118;-84
2022/11/09 06:22:59;;;;;;;9.87;1.80;;;;;;;10.95;100.00;100476.75;5115801;28;20041;-84
2022/11/09 06:25:26;;;;;;;9.55;1.70;;;;;;;10.88;100.00;100480.38;5130555;27;20040;-84
2022/11/09 06:27:56;;;;;;;9.53;1.20;;;;;;;10.93;100.00;100487.00;5131706;27;20046;-84
2022/11/09 06:30:22;;;;;;;12.75;1.80;;;;;;;10.90;100.00;100482.03;5115006;28;20050;-85
2022/11/09 06:32:47;;;;;;;7.25;1.67;;;;;;;10.92;100.00;100485.34;5113702;28;20075;-85
2022/11/09 06:35:13;;;;;;;8.67;1.80;;;;;;;10.92;100.00;100488.88;5130493;27;20083;-84
2022/11/09 06:37:41;;;;;;;15.27;1.80;;;;;;;10.93;100.00;100487.84;5113263;28;20092;-84
2022/11/09 06:40:11;;;;;;;8.45;1.95;;;;;;;10.93;100.00;100485.13;5130743;27;20118;-85
2022/11/09 06:42:36;;;;;;;8.80;2.03;;;;;;;10.98;100.00;100501.53;5113581;28;20071;-86
2022/11/09 06:45:04;;;;;;;12.00;1.80;;;;;;;11.01;100.00;100492.13;5113487;28;20126;-84
2022/11/09 06:47:30;;;;;;;14.15;1.63;;;;;;;10.96;100.00;100502.84;5096340;28;20035;-85
2022/11/09 06:49:58;;;;;;;9.07;1.60;;;;;;;10.96;100.00;100491.97;5113339;28;20046;-85
2022/11/09 06:52:24;;;;;;;11.90;1.50;;;;;;;11.00;100.00;100498.63;5130002;27;20380;-84
2022/11/09 06:54:50;;;;;;;9.63;2.00;;;;;;;11.08;100.00;100497.47;5112774;28;20070;-84
2022/11/09 06:57:15;;;;;;;11.13;1.50;;;;;;;11.08;100.00;100495.59;5096575;28;20063;-85
2022/11/09 06:59:41;;;;;;;9.90;1.57;;;;;;;11.03;100.00;100500.88;5113554;28;20089;-85
2022/11/09 07:02:11;;;;;;;8.10;1.50;;;;;;;11.00;100.00;100513.03;5095796;28;20039;-85
2022/11/09 07:04:36;;;;;;;9.73;1.35;;;;;;;10.95;100.00;100502.00;5130527;27;20388;-85
2022/11/09 07:07:02;;;;;;;11.60;1.60;;;;;;;10.99;100.00;100511.34;5112904;28;20039;-85
2022/11/09 07:09:27;;;;;;;12.70;1.80;;;;;;;10.96;100.00;100513.69;5112799;28;20038;-85
2022/11/09 07:11:52;;;;;;;9.80;1.40;;;;;;;10.96;100.00;100519.94;5112866;28;20059;-85
2022/11/09 07:14:18;;;;;;;14.30;1.40;;;;;;;10.92;100.00;100526.88;5130672;27;20270;-85
2022/11/09 07:16:43;;;;;;;10.33;1.57;;;;;;;10.95;100.00;100512.84;5095793;28;20177;-85
2022/11/09 07:19:09;;;;;;;12.67;2.10;;;;;;;11.00;100.00;100520.34;5112408;28;20040;-85
2022/11/09 07:21:34;;;;;;;7.50;1.58;;;;;;;11.07;100.00;100531.94;5095929;28;20044;-85
2022/11/09 07:24:00;;;;;;;8.60;1.10;;;;;;;11.04;100.00;100532.38;5112281;28;20184;-85
2022/11/09 07:26:26;;;;;;;9.73;1.80;;;;;;;11.02;100.00;100534.50;5112485;28;20395;-85
2022/11/09 07:28:51;;;;;;;12.50;1.65;;;;;;;10.98;100.00;100534.13;5112716;28;20472;-85
2022/11/09 07:31:17;;;;;;;9.07;1.47;;;;;;;10.97;100.00;100534.34;5112198;28;20038;-85
2022/11/09 07:33:42;;;;;;;10.70;1.30;;;;;;;11.04;100.00;100544.09;5112378;28;20035;-85
2022/11/09 07:36:08;;;;;;;7.27;1.53;;;;;;;11.08;100.00;100533.59;5108824;28;20048;-85
2022/11/09 07:38:40;;;;;;;8.65;1.67;;;;;;;11.06;100.00;100533.81;5112280;28;20109;-84
2022/11/09 07:41:09;;;;;;;9.30;1.50;;;;;;;11.07;100.00;100537.34;5096960;28;20047;-85
2022/11/09 07:43:37;;;;;;;8.77;1.53;;;;;;;11.09;100.00;100535.28;5112737;28;20040;-85
2022/11/09 07:46:10;;;;;;;8.15;1.60;;;;;;;11.12;100.00;100523.94;5112296;28;20051;-85
2022/11/09 07:48:38;;;;;;;8.68;1.55;;;;;;;11.10;100.00;100538.81;5112336;28;20074;-85
2022/11/09 07:51:03;;;;;;;11.50;1.60;;;;;;;11.16;100.00;100533.31;5116393;28;20528;-85
2022/11/09 07:53:29;;;;;;;10.33;1.93;;;;;;;11.25;100.00;100536.56;5116310;28;20043;-85
2022/11/09 07:55:57;;;;;;;10.90;1.38;;;;;;;11.28;100.00;100537.97;5116674;28;20077;-85
2022/11/09 07:58:26;;;;;;;7.50;1.35;;;;;;;11.30;99.93;100544.00;5133601;27;20032;-85
2022/11/09 08:00:52;;;;;;;8.17;1.70;;;;;;;11.34;99.76;100542.50;5117052;28;20071;-85
2022/11/09 08:03:18;;;;;;;6.15;1.40;;;;;;;11.37;99.67;100548.28;5116695;28;20032;-85
2022/11/09 08:05:44;;;;;;;10.45;1.90;;;;;;;11.43;99.12;100549.28;5116670;28;20043;-85
2022/11/09 08:08:11;;;;;;;8.93;1.60;;;;;;;11.40;99.58;100547.03;5133673;27;20046;-85
2022/11/09 08:10:38;;;;;;;8.48;1.30;;;;;;;11.40;99.35;100555.97;5116472;28;20044;-85
2022/11/09 08:13:07;;;;;;;7.00;1.42;;;;;;;11.48;98.29;100554.03;5133523;27;20373;-84
2022/11/09 08:15:40;;;;;;;11.63;1.65;;;;;;;11.41;99.20;100554.09;5133096;27;20443;-85
2022/11/09 08:18:19;;;;;;;5.47;1.30;;;;;;;11.40;99.23;100560.59;5116065;28;20035;-84
2022/11/09 08:20:44;;;;;;;7.82;1.55;;;;;;;11.41;99.23;100562.25;5133216;27;20035;-84
2022/11/09 08:23:14;;;;;;;10.23;1.20;;;;;;;11.47;98.75;100565.94;5116655;28;20081;-84
2022/11/09 08:25:40;;;;;;;9.87;1.37;;;;;;;11.55;98.16;100565.63;5134103;27;20272;-84
2022/11/09 08:28:07;;;;;;;6.40;1.60;;;;;;;11.58;97.92;100573.31;5117857;28;20126;-84
2022/11/09 08:30:34;;;;;;;10.40;1.83;;;;;;;11.62;97.52;100565.53;5115970;28;20494;-85
2022/11/09 08:33:01;;;;;;;5.82;1.70;;;;;;;11.58;97.55;100576.03;5115488;28;20034;-84
2022/11/09 08:35:28;;;;;;;11.60;1.75;;;;;;;11.58;97.76;100581.47;5115625;28;20127;-85
2022/11/09 08:37:53;;;;;;;7.43;1.40;;;;;;;11.61;97.19;100581.00;5133004;27;20044;-83
2022/11/09 08:40:24;;;;;;;8.43;1.65;;;;;;;11.65;97.46;100574.06;5133070;27;20050;-84
2022/11/09 08:42:51;;;;;;;12.67;1.70;;;;;;;11.75;96.02;100581.66;5098792;28;20043;-84
2022/11/09 08:45:17;;;;;;;10.52;1.52;;;;;;;11.79;96.13;100582.88;5115785;28;20035;-84
2022/11/09 08:47:43;;;;;;;7.13;1.75;;;;;;;11.87;95.76;100587.16;5116816;28;20043;-84
2022/11/09 08:50:11;;;;;;;5.20;1.63;;;;;;;12.03;95.35;100597.44;5115674;28;20040;-84
2022/11/09 08:52:37;;;;;;;8.98;1.67;;;;;;;11.98;94.85;100580.97;5132487;27;20036;-84
2022/11/09 08:55:06;;;;;;;10.85;1.50;;;;;;;12.00;94.23;100583.44;5115638;28;20078;-84
2022/11/09 08:57:34;;;;;;;10.02;1.45;;;;;;;11.98;94.93;100593.75;5116066;28;20426;-84
2022/11/09 09:00:07;;;;;;;6.90;1.30;;;;;;;12.01;93.82;100593.28;5132651;27;20039;-85
2022/11/09 09:02:33;;;;;;;6.20;1.17;;;;;;;11.98;94.83;100582.88;5115555;28;20092;-85
2022/11/09 09:04:58;;;;;;;13.57;1.52;;;;;;;12.01;94.81;100588.66;5115492;28;20043;-85
2022/11/09 09:07:27;;;;;;;11.13;1.50;;;;;;;12.09;93.41;100593.78;5098124;28;20040;-85
2022/11/09 09:09:55;;;;;;;14.93;1.70;;;;;;;12.16;92.01;100584.69;5098334;28;20399;-86
2022/11/09 09:12:24;;;;;;;9.05;1.80;;;;;;;12.18;92.36;100593.44;5115488;28;20035;-85
2022/11/09 09:14:49;;;;;;;9.47;1.20;;;;;;;12.28;92.56;100599.13;5115135;28;20040;-85
2022/11/09 09:17:17;;;;;;;11.38;1.63;;;;;;;12.39;91.17;100590.19;5115495;28;20042;-86
2022/11/09 09:19:50;;;;;;;8.93;1.70;;;;;;;12.49;90.00;100589.63;5097924;28;20031;-85
2022/11/09 09:22:29;;;;;;;8.43;1.93;;;;;;;12.56;89.63;100597.66;5116131;28;20491;-85
2022/11/09 09:24:58;;;;;;;7.68;1.23;;;;;;;12.61;89.88;100600.53;5131909;27;20040;-86
2022/11/09 09:27:23;;;;;;;13.70;1.48;;;;;;;12.68;87.81;100592.22;5114619;28;20426;-86
2022/11/09 09:29:51;;;;;;;9.60;1.77;;;;;;;12.62;87.71;100599.44;5097626;28;20040;-85
2022/11/09 09:32:17;;;;;;;11.07;1.88;;;;;;;12.60;87.56;100596.94;5115857;28;20032;-86
2022/11/09 09:34:42;;;;;;;11.90;1.80;;;;;;;12.65;87.62;100607.13;5113423;28;20062;-86
2022/11/09 09:37:08;;;;;;;11.10;1.60;;;;;;;12.66;87.35;100597.91;5114725;28;20031;-85
2022/11/09 09:39:33;;;;;;;6.70;1.40;;;;;;;12.76;87.02;100610.94;5132893;27;20131;-85
2022/11/09 09:42:04;;;;;;;9.33;1.20;;;;;;;12.78;86.83;100601.47;5114549;28;20035;-85
2022/11/09 09:44:39;;;;;;;8.77;1.35;;;;;;;12.79;86.94;100614.00;5131812;27;20047;-85
2022/11/09 09:47:20;;;;;;;11.57;1.67;;;;;;;12.85;86.18;100612.25;5114461;28;20039;-85
2022/11/09 09:49:59;;;;;;;10.55;1.30;;;;;;;12.88;85.16;100603.59;5115633;28;20075;-87
2022/11/09 09:52:41;;;;;;;7.70;1.63;;;;;;;13.06;84.43;100618.97;5131426;27;20078;-85
2022/11/09 09:55:18;;;;;;;14.25;1.63;;;;;;;13.14;83.66;100634.97;5115352;28;20032;-85
2022/11/09 09:57:52;;;;;;;6.43;1.35;;;;;;;13.21;83.55;100623.13;5115245;28;20061;-85
2022/11/09 10:00:30;;;;;;;11.75;1.50;;;;;;;13.38;83.79;100624.09;5113930;28;20115;-85
2022/11/09 10:02:56;;;;;;;10.77;1.95;;;;;;;13.60;82.35;100645.25;5131768;27;20528;-84
2022/11/09 10:05:41;;;;;;;11.63;1.40;;;;;;;13.60;81.40;100637.09;5114602;28;20032;-85
2022/11/09 10:08:40;;;;;;;7.05;1.45;;;;;;;13.49;81.30;100631.41;5131782;27;20119;-85
2022/11/09 10:11:22;;;;;;;11.32;1.45;;;;;;;13.41;81.27;100639.94;5102884;28;20032;-85
2022/11/09 10:14:16;;;;;;;12.30;1.80;;;;;;;13.41;81.00;100645.41;5114257;28;20050;-85
2022/11/09 10:16:57;;;;;;;9.65;1.20;;;;;;;13.45;81.75;100635.69;5114192;28;20463;-85
2022/11/09 10:19:36;;;;;;;5.95;1.08;;;;;;;13.48;80.17;100635.19;5114222;28;20543;-85
2022/11/09 10:22:13;;;;;;;10.60;1.40;;;;;;;13.51;80.33;100637.44;5113773;28;20043;-85
2022/11/09 10:25:08;;;;;;;4.88;1.08;;;;;;;13.68;79.45;100634.81;5131283;27;20036;-85
2022/11/09 10:27:36;;;;;;;10.37;1.60;;;;;;;13.77;78.16;100631.69;5114066;28;20035;-85
2022/11/09 10:30:14;;;;;;;6.13;1.48;;;;;;;13.92;78.00;100637.47;5130715;27;20115;-85
2022/11/09 10:32:43;;;;;;;8.57;1.70;;;;;;;13.96;77.55;100641.34;5114796;28;20035;-84
2022/11/09 10:35:26;;;;;;;8.38;1.58;;;;;;;14.06;77.69;100651.63;5113176;28;20451;-85
2022/11/09 10:37:53;;;;;;;10.38;1.70;;;;;;;14.11;75.72;100643.53;5113955;28;20050;-84
2022/11/09 10:40:46;;;;;;;10.83;1.53;;;;;;;14.10;75.24;100639.16;5097438;28;20036;-85
2022/11/09 10:43:13;;;;;;;11.60;1.90;;;;;;;14.09;74.79;100642.13;5114472;28;20038;-86
2022/11/09 10:45:41;;;;;;;5.15;1.10;;;;;;;14.06;74.27;100642.63;5130785;27;20130;-85
2022/11/09 10:48:10;;;;;;;7.72;1.30;;;;;;;13.90;74.79;100645.03;5115002;28;20123;-85
2022/11/09 10:50:53;;;;;;;6.15;1.30;;;;;;;13.89;76.46;100657.00;5113491;28;20040;-85
2022/11/09 10:53:23;;;;;;;9.47;1.30;;;;;;;13.85;75.20;100672.22;5130590;27;20050;-85
2022/11/09 10:55:55;;;;;;;12.57;2.00;;;;;;;13.73;76.22;100664.06;5130619;27;20104;-85
2022/11/09 10:58:35;;;;;;;11.35;1.80;;;;;;;13.80;76.90;100670.22;5113381;28;20035;-85
2022/11/09 11:01:12;;;;;;;7.07;1.58;;;;;;;13.68;76.40;100666.69;5113904;28;20054;-85
2022/11/09 11:03:38;;;;;;;7.15;1.33;;;;;;;13.79;75.81;100665.84;5114219;28;20032;-85
2022/11/09 11:06:22;;;;;;;8.83;1.47;;;;;;;14.04;75.24;100665.50;5130655;27;20139;-85
2022/11/09 11:09:16;;;;;;;9.55;1.65;;;;;;;13.84;74.77;100678.75;5113416;28;20070;-86
2022/11/09 11:11:41;;;;;;;9.55;1.50;;;;;;;13.73;74.87;100668.69;5114093;28;20067;-86
2022/11/09 11:14:31;;;;;;;9.85;1.38;;;;;;;13.63;76.08;100667.41;5114184;28;20089;-86
2022/11/09 11:16:57;;;;;;;6.73;1.17;;;;;;;13.49;75.31;100677.75;5113592;28;20130;-85
2022/11/09 11:19:43;;;;;;;8.02;0.85;;;;;;;13.41;75.71;100671.84;5130010;27;20073;-85
2022/11/09 11:22:13;;;;;;;6.85;1.30;;;;;;;13.44;74.86;100677.63;5130240;27;20430;-85
2022/11/09 11:25:10;;;;;;;9.10;1.60;;;;;;;13.68;74.77;100685.75;5114139;28;20467;-84
2022/11/09 11:28:04;;;;;;;7.60;1.20;;;;;;;13.81;74.03;100687.41;5130051;27;20031;-85
2022/11/09 11:30:36;;;;;;;5.53;1.00;;;;;;;13.72;73.26;100689.69;5129745;27;20036;-84
2022/11/09 11:33:13;;;;;;;8.57;1.10;;;;;;;13.66;74.99;100698.81;5114054;28;20085;-84
2022/11/09 11:36:11;;;;;;;9.05;1.55;;;;;;;13.63;74.09;100678.31;5114547;28;20054;-85